createdAt,value
2023-01-15T00:01:26.287Z,92.90
2023-01-15T00:03:55.582Z,93.95
2023-01-15T00:06:25.276Z,94.37
2023-01-15T00:08:54.495Z,94.67
2023-01-15T00:11:23.355Z,94.69
2023-01-15T00:13:52.764Z,95.05
2023-01-15T00:16:22.941Z,94.66
2023-01-15T00:18:53.362Z,94.17
2023-01-15T00:21:22.243Z,94.48
2023-01-15T00:24:07.696Z,94.13
2023-01-15T00:26:54.006Z,94.26
2023-01-15T00:29:23.192Z,93.85
2023-01-15T00:31:57.896Z,93.45
2023-01-15T00:34:28.435Z,92.52
2023-01-15T00:36:56.665Z,91.75
2023-01-15T00:39:25.344Z,91.55
2023-01-15T00:41:54.169Z,91.21
2023-01-15T00:44:22.770Z,91.94
2023-01-15T00:46:51.036Z,92.22
2023-01-15T00:49:19.608Z,92.19
2023-01-15T00:51:50.205Z,92.54
2023-01-15T00:54:18.863Z,92.92
2023-01-15T00:56:47.187Z,93.13
2023-01-15T00:59:15.413Z,92.61
2023-01-15T01:01:43.770Z,92.95
2023-01-15T01:04:12.077Z,93.37
2023-01-15T01:06:40.365Z,93.56
2023-01-15T01:09:13.282Z,93.77
2023-01-15T01:11:41.865Z,93.52
2023-01-15T01:14:11.727Z,93.00
2023-01-15T01:16:42.170Z,94.32
2023-01-15T01:19:12.934Z,93.61
2023-01-15T01:21:42.432Z,93.37
2023-01-15T01:24:13.079Z,94.26
2023-01-15T01:26:41.335Z,94.44
2023-01-15T01:29:09.516Z,93.55
2023-01-15T01:31:37.712Z,94.10
2023-01-15T01:34:05.914Z,94.17
2023-01-15T01:36:36.105Z,94.58
2023-01-15T01:39:05.828Z,95.38
2023-01-15T01:41:36.178Z,94.63
2023-01-15T01:44:06.244Z,94.84
2023-01-15T01:46:36.713Z,94.75
2023-01-15T01:49:10.805Z,94.49
2023-01-15T01:51:41.413Z,93.76
2023-01-15T01:54:12.563Z,94.21
2023-01-15T01:56:42.513Z,95.14
2023-01-15T01:59:11.100Z,96.85
2023-01-15T02:01:39.364Z,96.44
2023-01-15T02:04:09.204Z,96.81
2023-01-15T02:06:38.718Z,95.12
2023-01-15T02:09:07.342Z,95.70
2023-01-15T02:11:36.577Z,96.82
2023-01-15T02:14:11.983Z,97.51
2023-01-15T02:16:44.801Z,96.79
2023-01-15T02:19:24.013Z,97.42
2023-01-15T02:22:00.782Z,97.97
2023-01-15T02:24:36.034Z,98.34
2023-01-15T02:27:10.486Z,98.51
2023-01-15T02:29:49.148Z,98.30
2023-01-15T02:32:25.239Z,97.51
2023-01-15T02:34:59.779Z,97.15
2023-01-15T02:37:31.643Z,96.65
2023-01-15T02:40:02.757Z,96.75
2023-01-15T02:42:34.833Z,97.40
2023-01-15T02:45:05.396Z,97.43
2023-01-15T02:47:37.777Z,97.02
2023-01-15T02:50:14.351Z,96.17
2023-01-15T02:52:46.841Z,96.17
2023-01-15T02:55:20.502Z,96.09
2023-01-15T02:57:53.231Z,95.26
2023-01-15T03:00:24.943Z,94.80
2023-01-15T03:02:59.862Z,94.22
2023-01-15T03:05:32.571Z,94.68
2023-01-15T03:08:04.273Z,95.40
2023-01-15T03:10:40.448Z,97.23
2023-01-15T03:13:17.305Z,97.99
2023-01-15T03:16:11.797Z,98.78
2023-01-15T03:18:47.766Z,98.10
2023-01-15T03:21:22.479Z,98.61
2023-01-15T03:23:54.959Z,98.99
2023-01-15T03:26:23.383Z,99.19
2023-01-15T03:28:53.841Z,99.72
2023-01-15T03:31:22.395Z,99.98
2023-01-15T03:33:50.681Z,99.34
2023-01-15T03:36:18.813Z,99.08
2023-01-15T03:38:50.953Z,99.25
2023-01-15T03:41:23.562Z,99.35
2023-01-15T03:44:03.360Z,99.04
2023-01-15T03:46:45.103Z,99.00
2023-01-15T03:49:22.479Z,98.78
2023-01-15T03:52:00.972Z,98.78
2023-01-15T03:54:39.055Z,99.44
2023-01-15T03:57:11.562Z,98.99
2023-01-15T03:59:47.497Z,98.65
2023-01-15T04:02:17.114Z,98.67
2023-01-15T04:04:46.785Z,98.80
2023-01-15T04:07:15.652Z,99.61
2023-01-15T04:09:43.939Z,99.91
2023-01-15T04:12:12.657Z,100.00
2023-01-15T04:14:42.454Z,100.00
2023-01-15T04:17:10.803Z,100.00
2023-01-15T04:19:39.135Z,100.00
2023-01-15T04:22:07.299Z,100.00
2023-01-15T04:24:35.627Z,100.00
2023-01-15T04:27:03.874Z,100.00
2023-01-15T04:29:32.071Z,100.00
2023-01-15T04:32:01.721Z,100.00
2023-01-15T04:34:30.543Z,100.00
2023-01-15T04:36:59.203Z,100.00
2023-01-15T04:39:27.386Z,100.00
2023-01-15T04:42:12.758Z,100.00
2023-01-15T04:44:41.299Z,100.00
2023-01-15T04:47:11.098Z,100.00
2023-01-15T04:49:39.331Z,100.00
2023-01-15T04:52:07.662Z,100.00
2023-01-15T04:54:35.875Z,100.00
2023-01-15T04:57:04.048Z,100.00
2023-01-15T04:59:32.199Z,100.00
2023-01-15T05:02:06.357Z,100.00
2023-01-15T05:04:36.615Z,100.00
2023-01-15T05:07:06.520Z,100.00
2023-01-15T05:09:35.006Z,100.00
2023-01-15T05:12:03.232Z,100.00
2023-01-15T05:14:31.925Z,100.00
2023-01-15T05:17:00.360Z,100.00
2023-01-15T05:19:28.578Z,100.00
2023-01-15T05:21:58.128Z,100.00
2023-01-15T05:24:26.403Z,100.00
2023-01-15T05:26:55.304Z,100.00
2023-01-15T05:29:23.844Z,100.00
2023-01-15T05:31:52.136Z,100.00
2023-01-15T05:34:20.308Z,100.00
2023-01-15T05:36:48.544Z,100.00
2023-01-15T05:39:18.233Z,100.00
2023-01-15T05:41:52.921Z,100.00
2023-01-15T05:44:23.975Z,100.00
2023-01-15T05:46:53.863Z,100.00
2023-01-15T05:49:24.638Z,100.00
2023-01-15T05:51:53.781Z,100.00
2023-01-15T05:54:25.264Z,100.00
2023-01-15T05:56:53.770Z,100.00
2023-01-15T05:59:23.731Z,100.00
2023-01-15T06:01:52.013Z,100.00
2023-01-15T06:04:21.545Z,100.00
2023-01-15T06:06:51.127Z,100.00
2023-01-15T06:09:20.068Z,100.00
2023-01-15T06:11:49.803Z,100.00
2023-01-15T06:14:18.531Z,100.00
2023-01-15T06:16:47.371Z,100.00
2023-01-15T06:19:15.736Z,100.00
2023-01-15T06:21:44.540Z,100.00
2023-01-15T06:24:13.061Z,100.00
2023-01-15T06:26:41.225Z,100.00
2023-01-15T06:29:10.814Z,100.00
2023-01-15T06:31:39.100Z,100.00
2023-01-15T06:34:07.325Z,100.00
2023-01-15T06:36:35.596Z,100.00
2023-01-15T06:39:05.319Z,100.00
2023-01-15T06:41:51.073Z,100.00
2023-01-15T06:44:38.083Z,100.00
2023-01-15T06:47:24.916Z,100.00
2023-01-15T06:49:55.335Z,100.00
2023-01-15T06:52:24.029Z,100.00
2023-01-15T06:54:52.705Z,100.00
2023-01-15T06:57:20.946Z,100.00
2023-01-15T06:59:51.229Z,100.00
2023-01-15T07:02:21.630Z,100.00
2023-01-15T07:04:50.206Z,100.00
2023-01-15T07:07:20.380Z,100.00
2023-01-15T07:09:48.751Z,100.00
2023-01-15T07:12:17.364Z,100.00
2023-01-15T07:14:45.663Z,100.00
2023-01-15T07:17:15.394Z,100.00
2023-01-15T07:19:44.096Z,100.00
2023-01-15T07:22:12.479Z,100.00
2023-01-15T07:24:40.710Z,100.00
2023-01-15T07:27:09.116Z,100.00
2023-01-15T07:29:37.395Z,100.00
2023-01-15T07:32:06.200Z,100.00
2023-01-15T07:34:35.894Z,100.00
2023-01-15T07:37:04.079Z,100.00
2023-01-15T07:39:32.822Z,100.00
2023-01-15T07:42:18.664Z,100.00
2023-01-15T07:45:04.019Z,100.00
2023-01-15T07:47:49.646Z,99.40
2023-01-15T07:50:21.382Z,100.00
2023-01-15T07:52:53.137Z,99.77
2023-01-15T07:55:22.144Z,99.14
2023-01-15T07:57:50.394Z,99.10
2023-01-15T08:00:22.865Z,100.00
2023-01-15T08:02:51.162Z,99.79
2023-01-15T08:05:21.011Z,98.85
2023-01-15T08:07:50.065Z,97.14
2023-01-15T08:10:19.743Z,97.69
2023-01-15T08:13:08.611Z,95.84
2023-01-15T08:15:41.255Z,95.80
2023-01-15T08:18:09.509Z,95.86
2023-01-15T08:20:39.128Z,96.52
2023-01-15T08:23:07.348Z,96.31
2023-01-15T08:25:41.084Z,97.53
2023-01-15T08:28:09.276Z,97.38
2023-01-15T08:30:37.913Z,97.66
2023-01-15T08:33:06.101Z,97.00
2023-01-15T08:35:34.955Z,96.07
2023-01-15T08:38:07.518Z,96.15
2023-01-15T08:40:36.543Z,95.12
2023-01-15T08:43:04.711Z,95.26
2023-01-15T08:45:32.938Z,94.29
2023-01-15T08:48:01.075Z,92.83
2023-01-15T08:50:29.256Z,92.99
2023-01-15T08:52:57.424Z,95.23
2023-01-15T08:55:27.092Z,96.48
2023-01-15T08:57:55.281Z,95.96
2023-01-15T09:00:24.669Z,94.70
2023-01-15T09:02:52.862Z,95.23
2023-01-15T09:05:21.128Z,93.95
2023-01-15T09:07:49.242Z,95.06
2023-01-15T09:10:18.930Z,94.19
2023-01-15T09:12:48.794Z,93.75
2023-01-15T09:15:17.247Z,91.61
2023-01-15T09:17:45.525Z,91.64
2023-01-15T09:20:15.711Z,91.64
2023-01-15T09:22:43.900Z,91.01
2023-01-15T09:25:12.174Z,88.85
2023-01-15T09:27:40.341Z,88.64
2023-01-15T09:30:16.235Z,87.57
2023-01-15T09:32:44.353Z,87.89
2023-01-15T09:35:12.513Z,87.58
2023-01-15T09:37:40.711Z,87.17
2023-01-15T09:40:22.684Z,85.29
2023-01-15T09:42:57.709Z,85.10
2023-01-15T09:45:29.625Z,83.35
2023-01-15T09:48:13.157Z,83.00
2023-01-15T09:50:57.156Z,82.24
2023-01-15T09:53:42.872Z,82.13
2023-01-15T09:56:20.799Z,81.87
2023-01-15T09:58:49.304Z,81.11
2023-01-15T10:01:26.218Z,80.09
2023-01-15T10:04:01.061Z,80.43
2023-01-15T10:06:33.938Z,81.17
2023-01-15T10:09:07.942Z,80.81
2023-01-15T10:12:01.020Z,79.30
2023-01-15T10:14:44.991Z,79.31
2023-01-15T10:17:23.925Z,79.71
2023-01-15T10:19:52.723Z,78.84
2023-01-15T10:22:33.778Z,79.61
2023-01-15T10:25:05.749Z,80.42
2023-01-15T10:27:34.101Z,79.62
2023-01-15T10:30:07.702Z,80.22
2023-01-15T10:33:01.152Z,79.47
2023-01-15T10:35:41.829Z,79.65
2023-01-15T10:38:20.432Z,79.69
2023-01-15T10:41:05.386Z,79.08
2023-01-15T10:43:45.932Z,77.37
2023-01-15T10:46:17.479Z,78.02
2023-01-15T10:48:50.110Z,78.41
2023-01-15T10:51:22.820Z,76.69
2023-01-15T10:53:54.673Z,77.42
2023-01-15T10:56:33.026Z,78.35
2023-01-15T10:59:08.820Z,76.66
2023-01-15T11:01:38.469Z,77.23
2023-01-15T11:04:10.347Z,76.81
2023-01-15T11:06:38.629Z,77.27
2023-01-15T11:09:10.250Z,77.38
2023-01-15T11:11:58.621Z,75.71
2023-01-15T11:14:51.959Z,74.99
2023-01-15T11:17:37.564Z,73.75
2023-01-15T11:20:17.555Z,73.35
2023-01-15T11:22:45.863Z,73.31
2023-01-15T11:25:15.259Z,73.57
2023-01-15T11:27:43.450Z,73.19
2023-01-15T11:30:28.977Z,73.96
2023-01-15T11:32:58.582Z,72.26
2023-01-15T11:35:28.655Z,71.76
2023-01-15T11:38:07.666Z,72.31
2023-01-15T11:40:35.922Z,72.60
2023-01-15T11:43:21.407Z,73.21
2023-01-15T11:46:08.884Z,73.43
2023-01-15T11:49:03.441Z,72.17
2023-01-15T11:51:43.701Z,72.92
2023-01-15T11:54:15.204Z,74.10
2023-01-15T11:56:45.608Z,74.78
2023-01-15T11:59:17.760Z,74.96
2023-01-15T12:01:54.950Z,74.65
2023-01-15T12:04:37.722Z,74.81
2023-01-15T12:07:13.951Z,75.07
2023-01-15T12:09:58.369Z,74.91
2023-01-15T12:12:40.865Z,73.96
2023-01-15T12:15:19.975Z,73.73
2023-01-15T12:18:10.131Z,75.69
2023-01-15T12:20:53.655Z,76.88
2023-01-15T12:23:47.466Z,78.04
2023-01-15T12:26:22.163Z,78.51
2023-01-15T12:28:58.735Z,76.83
2023-01-15T12:31:32.268Z,77.05
2023-01-15T12:34:08.811Z,77.07
2023-01-15T12:36:43.192Z,76.84
2023-01-15T12:39:20.415Z,78.02
2023-01-15T12:42:08.024Z,77.50
2023-01-15T12:45:00.474Z,79.22
2023-01-15T12:47:33.939Z,79.78
2023-01-15T12:50:10.207Z,78.47
2023-01-15T12:52:43.127Z,78.39
2023-01-15T12:55:18.060Z,78.40
2023-01-15T12:57:51.046Z,78.25
2023-01-15T13:00:22.740Z,77.14
2023-01-15T13:03:11.676Z,77.70
2023-01-15T13:05:47.708Z,78.86
2023-01-15T13:08:24.906Z,79.53
2023-01-15T13:10:54.545Z,79.13
2023-01-15T13:13:24.776Z,76.46
2023-01-15T13:16:17.616Z,77.62
2023-01-15T13:18:56.660Z,79.34
2023-01-15T13:21:27.465Z,79.44
2023-01-15T13:24:12.753Z,80.28
2023-01-15T13:27:18.213Z,81.68
2023-01-15T13:30:01.722Z,81.07
2023-01-15T13:32:34.382Z,80.59
2023-01-15T13:35:10.425Z,80.85
2023-01-15T13:37:43.742Z,79.88
2023-01-15T13:40:19.532Z,80.40
2023-01-15T13:42:50.872Z,80.48
2023-01-15T13:45:34.744Z,80.58
2023-01-15T13:48:08.158Z,80.42
2023-01-15T13:50:38.602Z,79.82
2023-01-15T13:53:18.629Z,81.77
2023-01-15T13:55:53.912Z,84.09
2023-01-15T13:58:26.562Z,83.94
2023-01-15T14:01:25.258Z,83.92
2023-01-15T14:04:04.261Z,83.74
2023-01-15T14:06:44.499Z,81.45
2023-01-15T14:09:14.649Z,83.58
2023-01-15T14:11:59.861Z,86.64
2023-01-15T14:15:05.344Z,85.95
2023-01-15T14:18:05.031Z,86.08
2023-01-15T14:20:44.570Z,84.62
2023-01-15T14:23:45.377Z,84.03
2023-01-15T14:26:20.649Z,84.46
2023-01-15T14:29:01.370Z,84.78
2023-01-15T14:31:58.901Z,84.22
2023-01-15T14:34:30.267Z,83.24
2023-01-15T14:37:01.537Z,83.26
2023-01-15T14:39:39.156Z,83.34
2023-01-15T14:42:29.780Z,82.61
2023-01-15T14:45:01.779Z,82.23
2023-01-15T14:47:36.865Z,84.13
2023-01-15T14:50:25.641Z,85.82
2023-01-15T14:52:56.150Z,87.02
2023-01-15T14:55:24.707Z,87.35
2023-01-15T14:57:58.959Z,87.33
2023-01-15T15:00:35.352Z,86.47
2023-01-15T15:03:14.255Z,87.67
2023-01-15T15:05:43.375Z,87.94
2023-01-15T15:08:14.832Z,87.91
2023-01-15T15:10:45.563Z,87.79
2023-01-15T15:13:20.733Z,87.01
2023-01-15T15:15:53.624Z,87.70
2023-01-15T15:18:32.540Z,87.65
2023-01-15T15:21:08.205Z,87.96
2023-01-15T15:23:43.623Z,87.34
2023-01-15T15:26:25.631Z,87.64
2023-01-15T15:29:00.778Z,87.30
2023-01-15T15:31:30.704Z,88.07
2023-01-15T15:34:00.815Z,88.57
2023-01-15T15:36:32.432Z,88.75
2023-01-15T15:39:03.104Z,89.51
2023-01-15T15:41:54.130Z,90.30
2023-01-15T15:44:51.027Z,91.08
2023-01-15T15:47:38.761Z,91.05
2023-01-15T15:50:09.261Z,91.69
2023-01-15T15:52:37.383Z,92.51
2023-01-15T15:55:06.305Z,92.13
2023-01-15T15:57:36.480Z,92.17
2023-01-15T16:00:06.403Z,92.70
2023-01-15T16:02:38.368Z,92.06
2023-01-15T16:05:24.913Z,91.88
2023-01-15T16:07:54.004Z,92.42
2023-01-15T16:10:27.313Z,92.99
2023-01-15T16:12:57.745Z,93.74
2023-01-15T16:15:29.743Z,93.20
2023-01-15T16:17:59.122Z,93.26
2023-01-15T16:20:29.217Z,93.79
2023-01-15T16:22:59.179Z,93.92
2023-01-15T16:25:31.119Z,92.89
2023-01-15T16:27:59.839Z,92.54
2023-01-15T16:30:29.289Z,92.86
2023-01-15T16:33:02.595Z,92.55
2023-01-15T16:35:36.090Z,93.35
2023-01-15T16:38:05.970Z,93.18
2023-01-15T16:40:37.269Z,93.02
2023-01-15T16:43:11.319Z,93.27
2023-01-15T16:45:58.282Z,93.76
2023-01-15T16:48:30.030Z,93.74
2023-01-15T16:50:59.700Z,93.80
2023-01-15T16:53:38.099Z,93.46
2023-01-15T16:56:06.980Z,93.16
2023-01-15T16:58:38.297Z,92.66
2023-01-15T17:01:26.744Z,92.73
2023-01-15T17:03:55.224Z,93.23
2023-01-15T17:06:27.639Z,93.50
2023-01-15T17:08:57.743Z,93.64
2023-01-15T17:11:29.935Z,94.02
2023-01-15T17:14:10.666Z,95.20
2023-01-15T17:16:39.007Z,96.16
2023-01-15T17:19:08.692Z,96.40
2023-01-15T17:21:39.282Z,95.62
2023-01-15T17:24:08.970Z,96.46
2023-01-15T17:26:37.390Z,95.38
2023-01-15T17:29:05.637Z,95.23
2023-01-15T17:31:36.448Z,95.79
2023-01-15T17:34:05.197Z,96.44
2023-01-15T17:36:34.712Z,96.80
2023-01-15T17:39:04.412Z,97.60
2023-01-15T17:41:32.585Z,97.97
2023-01-15T17:44:00.826Z,97.77
2023-01-15T17:46:29.146Z,97.96
2023-01-15T17:48:57.398Z,97.24
2023-01-15T17:51:26.455Z,97.82
2023-01-15T17:53:54.667Z,98.03
2023-01-15T17:56:41.790Z,98.30
2023-01-15T17:59:29.799Z,99.68
2023-01-15T18:02:15.541Z,100.00
2023-01-15T18:05:04.574Z,100.00
2023-01-15T18:07:37.657Z,100.00
2023-01-15T18:10:07.689Z,100.00
2023-01-15T18:12:37.520Z,100.00
2023-01-15T18:15:06.463Z,100.00
2023-01-15T18:17:34.723Z,100.00
2023-01-15T18:20:03.041Z,100.00
2023-01-15T18:22:31.298Z,100.00
2023-01-15T18:24:59.574Z,100.00
2023-01-15T18:27:30.029Z,100.00
2023-01-15T18:30:00.328Z,100.00
2023-01-15T18:32:30.718Z,100.00
2023-01-15T18:34:58.927Z,100.00
2023-01-15T18:37:27.150Z,100.00
2023-01-15T18:39:55.375Z,100.00
2023-01-15T18:42:41.283Z,100.00
2023-01-15T18:45:30.140Z,100.00
2023-01-15T18:47:58.435Z,100.00
2023-01-15T18:50:27.028Z,100.00
2023-01-15T18:52:55.626Z,100.00
2023-01-15T18:55:25.500Z,100.00
2023-01-15T18:57:53.796Z,100.00
2023-01-15T19:00:24.823Z,100.00
2023-01-15T19:02:53.234Z,100.00
2023-01-15T19:05:21.599Z,100.00
2023-01-15T19:07:49.788Z,100.00
2023-01-15T19:10:19.093Z,100.00
2023-01-15T19:12:47.320Z,100.00
2023-01-15T19:15:35.767Z,100.00
2023-01-15T19:18:23.362Z,100.00
2023-01-15T19:20:51.923Z,100.00
2023-01-15T19:23:21.894Z,100.00
2023-01-15T19:25:50.297Z,100.00
2023-01-15T19:28:20.165Z,100.00
2023-01-15T19:31:10.903Z,100.00
2023-01-15T19:33:40.700Z,100.00
2023-01-15T19:36:09.351Z,100.00
2023-01-15T19:38:38.553Z,100.00
2023-01-15T19:41:28.738Z,100.00
2023-01-15T19:44:14.143Z,100.00
2023-01-15T19:47:00.259Z,100.00
2023-01-15T19:49:52.107Z,100.00
2023-01-15T19:52:35.764Z,100.00
2023-01-15T19:55:04.676Z,100.00
2023-01-15T19:57:32.877Z,100.00
2023-01-15T20:00:01.069Z,100.00
2023-01-15T20:02:29.420Z,100.00
2023-01-15T20:04:59.138Z,100.00
2023-01-15T20:07:27.348Z,100.00
2023-01-15T20:09:55.739Z,100.00
2023-01-15T20:12:53.037Z,100.00
2023-01-15T20:15:21.692Z,100.00
2023-01-15T20:17:50.400Z,100.00
2023-01-15T20:20:20.187Z,100.00
2023-01-15T20:22:48.585Z,100.00
2023-01-15T20:25:16.986Z,100.00
2023-01-15T20:27:45.187Z,100.00
2023-01-15T20:30:16.152Z,100.00
2023-01-15T20:32:45.716Z,100.00
2023-01-15T20:35:16.053Z,100.00
2023-01-15T20:37:45.897Z,100.00
2023-01-15T20:40:15.184Z,100.00
2023-01-15T20:43:03.287Z,100.00
2023-01-15T20:45:31.810Z,100.00
2023-01-15T20:48:17.499Z,100.00
2023-01-15T20:51:00.840Z,100.00
2023-01-15T20:53:33.463Z,100.00
2023-01-15T20:56:03.787Z,100.00
2023-01-15T20:58:32.156Z,100.00
2023-01-15T21:01:06.829Z,100.00
2023-01-15T21:03:43.087Z,100.00
2023-01-15T21:06:53.274Z,100.00
2023-01-15T21:09:23.341Z,100.00
2023-01-15T21:12:18.980Z,100.00
2023-01-15T21:14:47.372Z,100.00
2023-01-15T21:17:21.943Z,100.00
2023-01-15T21:20:10.272Z,100.00
2023-01-15T21:22:56.562Z,100.00
2023-01-15T21:25:47.546Z,100.00
2023-01-15T21:28:32.936Z,100.00
2023-01-15T21:31:18.255Z,100.00
2023-01-15T21:33:57.372Z,100.00
2023-01-15T21:36:41.053Z,100.00
2023-01-15T21:39:22.372Z,100.00
2023-01-15T21:42:22.794Z,100.00
2023-01-15T21:45:10.239Z,100.00
2023-01-15T21:47:52.372Z,100.00
2023-01-15T21:50:33.803Z,100.00
2023-01-15T21:53:02.918Z,100.00
2023-01-15T21:55:31.255Z,100.00
2023-01-15T21:58:01.265Z,100.00
2023-01-15T22:00:29.567Z,100.00
2023-01-15T22:02:58.636Z,100.00
2023-01-15T22:05:26.849Z,100.00
2023-01-15T22:07:56.537Z,100.00
2023-01-15T22:10:24.717Z,100.00
2023-01-15T22:12:55.380Z,100.00
2023-01-15T22:15:36.360Z,100.00
2023-01-15T22:18:08.827Z,100.00
2023-01-15T22:20:37.765Z,100.00
2023-01-15T22:23:09.986Z,100.00
2023-01-15T22:25:47.392Z,100.00
2023-01-15T22:28:16.385Z,100.00
2023-01-15T22:30:46.514Z,100.00
2023-01-15T22:33:14.839Z,100.00
2023-01-15T22:35:43.237Z,100.00
2023-01-15T22:38:11.395Z,100.00
2023-01-15T22:40:39.632Z,100.00
2023-01-15T22:43:08.072Z,100.00
2023-01-15T22:45:40.991Z,100.00
2023-01-15T22:48:13.508Z,100.00
2023-01-15T22:50:41.899Z,100.00
2023-01-15T22:53:10.258Z,100.00
2023-01-15T22:55:39.030Z,100.00
2023-01-15T22:58:08.950Z,100.00
2023-01-15T23:00:37.463Z,100.00
2023-01-15T23:03:09.798Z,100.00
2023-01-15T23:05:39.603Z,100.00
2023-01-15T23:08:08.524Z,100.00
2023-01-15T23:10:48.164Z,100.00
2023-01-15T23:13:16.627Z,100.00
2023-01-15T23:15:44.995Z,100.00
2023-01-15T23:18:13.212Z,100.00
2023-01-15T23:20:43.278Z,100.00
2023-01-15T23:23:11.395Z,100.00
2023-01-15T23:25:39.520Z,100.00
2023-01-15T23:28:07.681Z,100.00
2023-01-15T23:30:35.839Z,100.00
2023-01-15T23:33:04.331Z,100.00
2023-01-15T23:35:32.818Z,100.00
2023-01-15T23:38:02.398Z,100.00
2023-01-15T23:40:30.521Z,100.00
2023-01-15T23:43:30.667Z,100.00
2023-01-15T23:46:16.961Z,100.00
2023-01-15T23:48:45.373Z,100.00
2023-01-15T23:51:13.623Z,100.00
2023-01-15T23:53:43.258Z,100.00
2023-01-15T23:56:11.458Z,100.00
2023-01-15T23:58:40.378Z,100.00
